createdAt,value
2023-05-21T00:00:28.975Z,13.18
2023-05-21T00:02:59.475Z,13.10
2023-05-21T00:05:28.404Z,13.12
2023-05-21T00:07:56.990Z,13.08
2023-05-21T00:10:25.785Z,13.08
2023-05-21T00:12:54.613Z,13.08
2023-05-21T00:15:24.542Z,13.09
2023-05-21T00:17:53.831Z,13.09
2023-05-21T00:20:23.458Z,13.07
2023-05-21T00:22:51.983Z,13.06
2023-05-21T00:25:20.931Z,13.04
2023-05-21T00:27:50.248Z,13.05
2023-05-21T00:30:19.281Z,13.05
2023-05-21T00:32:49.602Z,13.06
2023-05-21T00:35:18.500Z,13.06
2023-05-21T00:37:47.873Z,13.05
2023-05-21T00:40:16.761Z,13.03
2023-05-21T00:42:48.267Z,13.00
2023-05-21T00:45:17.057Z,12.97
2023-05-21T00:47:46.072Z,12.96
2023-05-21T00:50:16.586Z,12.94
2023-05-21T00:52:46.006Z,12.92
2023-05-21T00:55:14.840Z,12.89
2023-05-21T00:57:43.897Z,12.87
2023-05-21T01:00:14.938Z,12.84
2023-05-21T01:02:44.644Z,12.80
2023-05-21T01:05:13.699Z,12.77
2023-05-21T01:07:44.030Z,12.73
2023-05-21T01:10:15.261Z,12.70
2023-05-21T01:12:45.675Z,12.68
2023-05-21T01:15:14.679Z,12.67
2023-05-21T01:17:46.341Z,12.63
2023-05-21T01:20:18.436Z,12.61
2023-05-21T01:22:54.034Z,12.56
2023-05-21T01:25:23.221Z,12.55
2023-05-21T01:27:52.358Z,12.52
2023-05-21T01:30:22.759Z,12.49
2023-05-21T01:32:57.009Z,12.42
2023-05-21T01:35:28.655Z,12.44
2023-05-21T01:38:01.667Z,12.41
2023-05-21T01:40:33.828Z,12.39
2023-05-21T01:43:03.387Z,12.39
2023-05-21T01:45:33.453Z,12.39
2023-05-21T01:48:02.389Z,12.36
2023-05-21T01:50:32.162Z,12.34
2023-05-21T01:53:04.058Z,12.28
2023-05-21T01:55:33.242Z,12.20
2023-05-21T01:58:02.662Z,12.06
2023-05-21T02:00:32.870Z,12.00
2023-05-21T02:03:02.265Z,11.93
2023-05-21T02:05:31.188Z,11.87
2023-05-21T02:08:01.469Z,11.84
2023-05-21T02:10:30.296Z,11.81
2023-05-21T02:12:59.502Z,11.75
2023-05-21T02:15:30.508Z,11.72
2023-05-21T02:17:59.380Z,11.70
2023-05-21T02:20:28.084Z,11.70
2023-05-21T02:22:59.622Z,11.69
2023-05-21T02:25:29.650Z,11.70
2023-05-21T02:27:58.090Z,11.69
2023-05-21T02:30:26.801Z,11.70
2023-05-21T02:32:55.365Z,11.69
2023-05-21T02:35:24.132Z,11.68
2023-05-21T02:37:53.001Z,11.70
2023-05-21T02:40:25.487Z,11.70
2023-05-21T02:42:55.528Z,11.64
2023-05-21T02:45:24.278Z,11.58
2023-05-21T02:47:53.002Z,11.55
2023-05-21T02:50:22.999Z,11.56
2023-05-21T02:52:52.559Z,11.49
2023-05-21T02:55:21.279Z,11.45
2023-05-21T02:57:50.025Z,11.44
2023-05-21T03:00:20.475Z,11.43
2023-05-21T03:02:48.958Z,11.40
2023-05-21T03:05:17.496Z,11.38
2023-05-21T03:07:46.732Z,11.37
2023-05-21T03:10:15.440Z,11.27
2023-05-21T03:12:43.960Z,11.25
2023-05-21T03:15:15.050Z,11.23
2023-05-21T03:17:45.464Z,11.21
2023-05-21T03:20:17.272Z,11.21
2023-05-21T03:22:46.814Z,11.21
2023-05-21T03:25:16.663Z,11.22
2023-05-21T03:27:45.203Z,11.25
2023-05-21T03:30:14.341Z,11.27
2023-05-21T03:32:45.281Z,11.27
2023-05-21T03:35:14.108Z,11.30
2023-05-21T03:37:42.733Z,11.37
2023-05-21T03:40:12.485Z,11.42
2023-05-21T03:42:41.144Z,11.48
2023-05-21T03:45:11.032Z,11.52
2023-05-21T03:47:39.528Z,11.57
2023-05-21T03:50:13.529Z,11.56
2023-05-21T03:52:41.919Z,11.61
2023-05-21T03:55:11.417Z,11.57
2023-05-21T03:57:40.073Z,11.58
2023-05-21T04:00:10.448Z,11.59
2023-05-21T04:02:39.524Z,11.63
2023-05-21T04:05:10.306Z,11.67
2023-05-21T04:07:40.131Z,11.69
2023-05-21T04:10:09.888Z,11.69
2023-05-21T04:12:38.650Z,11.72
2023-05-21T04:15:08.840Z,11.78
2023-05-21T04:17:37.900Z,11.86
2023-05-21T04:20:08.845Z,11.92
2023-05-21T04:22:38.969Z,11.92
2023-05-21T04:25:07.668Z,11.95
2023-05-21T04:27:36.959Z,11.97
2023-05-21T04:30:06.420Z,12.01
2023-05-21T04:32:35.542Z,12.05
2023-05-21T04:35:04.679Z,12.10
2023-05-21T04:37:35.368Z,12.16
2023-05-21T04:40:06.960Z,12.17
2023-05-21T04:42:36.092Z,12.22
2023-05-21T04:45:05.230Z,12.25
2023-05-21T04:47:35.958Z,12.15
2023-05-21T04:50:04.754Z,12.37
2023-05-21T04:52:35.070Z,12.45
2023-05-21T04:55:05.828Z,12.55
2023-05-21T04:57:35.421Z,12.65
2023-05-21T05:00:06.674Z,12.71
2023-05-21T05:02:35.678Z,12.81
2023-05-21T05:05:05.164Z,12.88
2023-05-21T05:07:33.766Z,12.93
2023-05-21T05:10:02.452Z,13.02
2023-05-21T05:12:32.555Z,13.08
2023-05-21T05:15:01.255Z,13.15
2023-05-21T05:17:32.325Z,13.22
2023-05-21T05:20:00.823Z,13.31
2023-05-21T05:22:29.702Z,13.40
2023-05-21T05:24:58.186Z,13.49
2023-05-21T05:27:27.544Z,13.58
2023-05-21T05:29:57.390Z,13.68
2023-05-21T05:32:26.670Z,13.81
2023-05-21T05:34:55.308Z,13.87
2023-05-21T05:37:24.229Z,13.96
2023-05-21T05:39:53.045Z,14.04
2023-05-21T05:42:22.113Z,14.18
2023-05-21T05:44:50.749Z,14.28
2023-05-21T05:47:22.109Z,14.38
2023-05-21T05:49:50.783Z,14.49
2023-05-21T05:52:19.661Z,14.57
2023-05-21T05:54:48.772Z,14.65
2023-05-21T05:57:17.628Z,14.82
2023-05-21T05:59:47.013Z,15.02
2023-05-21T06:02:15.497Z,15.19
2023-05-21T06:04:48.866Z,15.38
2023-05-21T06:07:17.691Z,15.54
2023-05-21T06:09:46.579Z,15.72
2023-05-21T06:12:16.252Z,15.90
2023-05-21T06:14:46.278Z,16.10
2023-05-21T06:17:15.409Z,16.30
2023-05-21T06:19:47.201Z,16.49
2023-05-21T06:22:16.288Z,16.70
2023-05-21T06:24:44.639Z,16.87
2023-05-21T06:27:13.602Z,17.05
2023-05-21T06:29:42.074Z,17.13
2023-05-21T06:32:10.726Z,17.22
2023-05-21T06:34:39.470Z,17.28
2023-05-21T06:37:09.547Z,17.43
2023-05-21T06:39:38.066Z,17.50
2023-05-21T06:42:07.491Z,17.59
2023-05-21T06:44:36.338Z,17.69
2023-05-21T06:47:04.858Z,17.74
2023-05-21T06:49:34.051Z,17.90
2023-05-21T06:52:03.428Z,18.03
2023-05-21T06:54:33.616Z,18.21
2023-05-21T06:57:02.337Z,18.18
2023-05-21T06:59:30.962Z,18.15
2023-05-21T07:01:59.631Z,18.31
2023-05-21T07:04:28.617Z,18.31
2023-05-21T07:06:56.993Z,18.40
2023-05-21T07:09:26.030Z,18.49
2023-05-21T07:11:56.073Z,18.58
2023-05-21T07:14:27.850Z,18.68
2023-05-21T07:16:56.438Z,18.83
2023-05-21T07:19:25.797Z,18.97
2023-05-21T07:21:54.699Z,19.04
2023-05-21T07:24:23.381Z,19.16
2023-05-21T07:26:52.099Z,19.25
2023-05-21T07:29:22.300Z,19.36
2023-05-21T07:31:50.953Z,19.43
2023-05-21T07:34:19.569Z,19.64
2023-05-21T07:36:48.509Z,19.65
2023-05-21T07:39:19.600Z,19.77
2023-05-21T07:41:48.287Z,19.75
2023-05-21T07:44:16.838Z,19.75
2023-05-21T07:46:47.089Z,19.81
2023-05-21T07:49:17.242Z,19.92
2023-05-21T07:51:46.473Z,20.07
2023-05-21T07:54:15.381Z,19.87
2023-05-21T07:56:44.241Z,19.94
2023-05-21T07:59:13.886Z,19.97
2023-05-21T08:01:43.621Z,20.11
2023-05-21T08:04:14.344Z,20.30
2023-05-21T08:06:43.181Z,20.40
2023-05-21T08:09:12.600Z,20.22
2023-05-21T08:11:41.149Z,20.43
2023-05-21T08:14:10.337Z,20.66
2023-05-21T08:16:39.363Z,20.65
2023-05-21T08:19:08.344Z,20.67
2023-05-21T08:21:38.518Z,20.74
2023-05-21T08:24:08.722Z,20.79
2023-05-21T08:26:38.135Z,20.85
2023-05-21T08:29:07.450Z,20.98
2023-05-21T08:31:36.096Z,21.18
2023-05-21T08:34:04.442Z,21.27
2023-05-21T08:36:33.212Z,21.22
2023-05-21T08:39:03.555Z,21.26
2023-05-21T08:41:33.013Z,21.40
2023-05-21T08:44:03.306Z,21.35
2023-05-21T08:46:34.736Z,21.43
2023-05-21T08:49:05.121Z,21.55
2023-05-21T08:51:34.177Z,21.78
2023-05-21T08:54:04.622Z,21.85
2023-05-21T08:56:34.171Z,21.93
2023-05-21T08:59:03.981Z,21.90
2023-05-21T09:01:34.933Z,22.01
2023-05-21T09:04:19.629Z,21.87
2023-05-21T09:06:50.521Z,22.11
2023-05-21T09:09:27.557Z,22.28
2023-05-21T09:11:56.378Z,22.27
2023-05-21T09:14:25.649Z,22.28
2023-05-21T09:16:54.583Z,22.33
2023-05-21T09:19:24.339Z,22.38
2023-05-21T09:21:53.502Z,22.55
2023-05-21T09:24:24.499Z,22.73
2023-05-21T09:26:53.026Z,22.76
2023-05-21T09:29:21.980Z,22.98
2023-05-21T09:34:20.560Z,23.00
2023-05-21T09:36:50.913Z,22.78
2023-05-21T09:39:30.952Z,22.76
2023-05-21T09:41:59.858Z,23.02
2023-05-21T09:44:28.995Z,23.39
2023-05-21T09:47:00.304Z,23.55
2023-05-21T09:49:29.104Z,23.49
2023-05-21T09:51:58.426Z,23.60
2023-05-21T09:54:27.905Z,23.79
2023-05-21T09:56:58.865Z,23.58
2023-05-21T09:59:37.581Z,23.85
2023-05-21T10:02:17.305Z,24.09
2023-05-21T10:04:46.810Z,24.26
2023-05-21T10:07:24.837Z,24.23
2023-05-21T10:09:55.656Z,24.28
2023-05-21T10:12:26.403Z,24.23
2023-05-21T10:14:58.847Z,24.30
2023-05-21T10:17:29.553Z,24.57
2023-05-21T10:19:58.757Z,24.82
2023-05-21T10:22:27.887Z,24.79
2023-05-21T10:24:57.410Z,24.90
2023-05-21T10:27:29.850Z,24.90
2023-05-21T10:30:01.357Z,25.00
2023-05-21T10:32:32.262Z,25.10
2023-05-21T10:35:02.563Z,25.19
2023-05-21T10:37:31.976Z,25.05
2023-05-21T10:40:00.819Z,25.04
2023-05-21T10:42:52.806Z,25.23
2023-05-21T10:45:28.592Z,25.18
2023-05-21T10:48:07.211Z,25.41
2023-05-21T10:50:50.470Z,25.30
2023-05-21T10:53:24.725Z,24.90
2023-05-21T10:56:01.680Z,25.07
2023-05-21T10:58:53.208Z,25.26
2023-05-21T11:01:22.314Z,25.44
2023-05-21T11:03:51.563Z,25.26
2023-05-21T11:06:25.679Z,25.27
2023-05-21T11:08:56.992Z,25.76
2023-05-21T11:11:48.809Z,25.78
2023-05-21T11:14:39.940Z,25.77
2023-05-21T11:17:14.121Z,25.70
2023-05-21T11:19:44.092Z,25.88
2023-05-21T11:22:23.711Z,25.78
2023-05-21T11:24:52.981Z,25.82
2023-05-21T11:27:33.678Z,25.71
2023-05-21T11:30:08.358Z,25.49
2023-05-21T11:32:41.597Z,25.58
2023-05-21T11:35:10.480Z,25.77
2023-05-21T11:37:41.936Z,25.84
2023-05-21T11:40:26.367Z,25.81
2023-05-21T11:42:56.448Z,26.00
2023-05-21T11:45:31.159Z,25.95
2023-05-21T11:48:00.450Z,25.59
2023-05-21T11:50:30.967Z,25.18
2023-05-21T11:53:01.524Z,25.03
2023-05-21T11:55:30.301Z,24.98
2023-05-21T11:58:00.237Z,24.86
2023-05-21T12:00:30.302Z,25.16
2023-05-21T12:02:59.676Z,25.55
2023-05-21T12:05:28.486Z,25.73
2023-05-21T12:07:58.854Z,25.79
2023-05-21T12:10:27.602Z,26.02
2023-05-21T12:12:57.490Z,26.20
2023-05-21T12:15:30.789Z,26.56
2023-05-21T12:17:59.642Z,26.52
2023-05-21T12:20:29.497Z,26.11
2023-05-21T12:23:00.788Z,26.18
2023-05-21T12:25:32.377Z,26.44
2023-05-21T12:28:03.680Z,26.26
2023-05-21T12:30:34.141Z,26.11
2023-05-21T12:33:04.719Z,26.27
2023-05-21T12:35:33.850Z,26.55
2023-05-21T12:38:04.303Z,26.69
2023-05-21T12:40:37.752Z,26.26
2023-05-21T12:43:07.172Z,25.98
2023-05-21T12:45:39.711Z,25.75
2023-05-21T12:48:09.159Z,25.70
2023-05-21T12:50:41.147Z,25.65
2023-05-21T12:53:11.144Z,25.31
2023-05-21T12:55:40.896Z,24.88
2023-05-21T12:58:09.755Z,24.82
2023-05-21T13:00:40.663Z,25.04
2023-05-21T13:03:09.971Z,25.37
2023-05-21T13:05:42.455Z,25.13
2023-05-21T13:08:14.476Z,25.30
2023-05-21T13:10:43.594Z,25.06
2023-05-21T13:13:12.286Z,24.93
2023-05-21T13:15:42.382Z,24.77
2023-05-21T13:18:12.695Z,24.52
2023-05-21T13:20:41.681Z,24.79
2023-05-21T13:23:11.616Z,24.55
2023-05-21T13:25:40.532Z,24.40
2023-05-21T13:28:10.625Z,24.29
2023-05-21T13:30:39.413Z,24.40
2023-05-21T13:33:10.122Z,24.43
2023-05-21T13:35:39.246Z,24.31
2023-05-21T13:38:08.201Z,24.16
2023-05-21T13:40:39.045Z,24.14
2023-05-21T13:43:08.391Z,24.57
2023-05-21T13:45:37.704Z,24.77
2023-05-21T13:48:07.264Z,24.91
2023-05-21T13:50:37.609Z,24.59
2023-05-21T13:53:07.330Z,25.10
2023-05-21T13:55:36.357Z,25.33
2023-05-21T13:58:05.402Z,25.57
2023-05-21T14:00:34.362Z,25.38
2023-05-21T14:03:03.326Z,25.01
2023-05-21T14:05:32.141Z,24.74
2023-05-21T14:08:01.925Z,24.60
2023-05-21T14:10:31.076Z,24.41
2023-05-21T14:13:11.332Z,24.34
2023-05-21T14:15:48.726Z,24.41
2023-05-21T14:18:17.813Z,24.69
2023-05-21T14:20:46.680Z,24.31
2023-05-21T14:23:17.120Z,24.13
2023-05-21T14:25:46.065Z,24.52
2023-05-21T14:28:15.337Z,24.98
2023-05-21T14:30:44.673Z,25.38
2023-05-21T14:33:13.607Z,25.57
2023-05-21T14:35:44.339Z,25.44
2023-05-21T14:38:16.980Z,25.54
2023-05-21T14:40:45.865Z,25.22
2023-05-21T14:43:16.404Z,25.26
2023-05-21T14:45:46.445Z,25.13
2023-05-21T14:48:22.992Z,24.95
2023-05-21T14:50:51.923Z,24.72
2023-05-21T14:53:22.848Z,24.35
2023-05-21T14:55:54.657Z,24.24
2023-05-21T14:58:23.830Z,24.06
2023-05-21T15:00:53.118Z,23.96
2023-05-21T15:03:22.012Z,23.93
2023-05-21T15:05:51.262Z,23.84
2023-05-21T15:08:19.637Z,23.78
2023-05-21T15:10:49.735Z,23.66
2023-05-21T15:13:18.470Z,23.65
2023-05-21T15:15:47.453Z,23.62
2023-05-21T15:18:16.448Z,23.64
2023-05-21T15:20:45.322Z,23.70
2023-05-21T15:23:17.313Z,24.00
2023-05-21T15:25:46.912Z,24.40
2023-05-21T15:28:17.379Z,24.45
2023-05-21T15:30:46.637Z,24.39
2023-05-21T15:33:18.605Z,24.26
2023-05-21T15:35:48.300Z,24.01
2023-05-21T15:38:17.145Z,24.08
2023-05-21T15:40:46.449Z,23.90
2023-05-21T15:43:16.464Z,23.80
2023-05-21T15:45:47.350Z,23.63
2023-05-21T15:48:20.169Z,23.93
2023-05-21T15:50:48.911Z,24.23
2023-05-21T15:53:17.758Z,24.20
2023-05-21T15:55:46.506Z,24.25
2023-05-21T15:58:17.707Z,24.28
2023-05-21T16:00:46.936Z,24.34
2023-05-21T16:03:15.492Z,24.44
2023-05-21T16:05:44.486Z,24.64
2023-05-21T16:08:13.569Z,24.60
2023-05-21T16:10:42.938Z,24.79
2023-05-21T16:13:11.662Z,24.79
2023-05-21T16:15:41.644Z,24.62
2023-05-21T16:18:10.481Z,24.63
2023-05-21T16:20:39.528Z,24.63
2023-05-21T16:23:08.222Z,24.58
2023-05-21T16:25:37.740Z,24.60
2023-05-21T16:28:06.788Z,24.56
2023-05-21T16:30:36.241Z,24.52
2023-05-21T16:33:06.592Z,24.39
2023-05-21T16:35:35.699Z,24.44
2023-05-21T16:38:04.394Z,24.50
2023-05-21T16:40:33.264Z,24.58
2023-05-21T16:43:03.051Z,24.55
2023-05-21T16:45:36.943Z,24.47
2023-05-21T16:48:07.895Z,24.34
2023-05-21T16:50:37.057Z,24.29
2023-05-21T16:53:07.043Z,24.27
2023-05-21T16:55:38.236Z,24.20
2023-05-21T16:58:09.576Z,24.18
2023-05-21T17:00:38.685Z,24.19
2023-05-21T17:03:09.697Z,24.16
2023-05-21T17:05:39.282Z,24.02
2023-05-21T17:08:08.927Z,23.94
2023-05-21T17:10:37.637Z,23.72
2023-05-21T17:13:18.225Z,23.62
2023-05-21T17:15:51.675Z,23.47
2023-05-21T17:18:21.683Z,23.35
2023-05-21T17:20:50.662Z,23.29
2023-05-21T17:23:20.115Z,23.23
2023-05-21T17:25:49.562Z,23.09
2023-05-21T17:28:18.072Z,22.95
2023-05-21T17:30:49.466Z,22.75
2023-05-21T17:33:18.471Z,22.73
2023-05-21T17:35:48.625Z,22.64
2023-05-21T17:38:17.006Z,22.47
2023-05-21T17:40:46.201Z,22.27
2023-05-21T17:43:15.041Z,22.09
2023-05-21T17:45:44.245Z,21.91
2023-05-21T17:48:13.410Z,21.73
2023-05-21T17:50:42.126Z,21.61
2023-05-21T17:53:13.239Z,21.54
2023-05-21T17:55:42.284Z,21.42
2023-05-21T17:58:11.412Z,21.25
2023-05-21T18:00:40.398Z,21.15
2023-05-21T18:03:09.278Z,21.08
2023-05-21T18:05:39.249Z,21.00
2023-05-21T18:08:10.313Z,20.84
2023-05-21T18:10:41.229Z,20.72
2023-05-21T18:13:10.138Z,20.61
2023-05-21T18:15:39.175Z,20.50
2023-05-21T18:18:08.391Z,20.37
2023-05-21T18:20:37.669Z,20.25
2023-05-21T18:23:06.778Z,20.15
2023-05-21T18:25:36.087Z,20.08
2023-05-21T18:28:06.908Z,19.98
2023-05-21T18:30:36.337Z,19.88
2023-05-21T18:33:05.178Z,19.80
2023-05-21T18:35:34.213Z,19.69
2023-05-21T18:38:04.383Z,19.63
2023-05-21T18:40:33.868Z,19.56
2023-05-21T18:43:03.771Z,19.46
2023-05-21T18:45:34.990Z,19.27
2023-05-21T18:48:04.445Z,19.21
2023-05-21T18:50:34.742Z,18.94
2023-05-21T18:53:04.077Z,18.87
2023-05-21T18:55:32.961Z,18.66
2023-05-21T18:58:01.514Z,18.53
2023-05-21T19:00:30.960Z,18.40
2023-05-21T19:03:02.583Z,18.36
2023-05-21T19:05:31.708Z,18.31
2023-05-21T19:08:00.714Z,18.09
2023-05-21T19:10:30.927Z,17.98
2023-05-21T19:12:59.702Z,17.84
2023-05-21T19:15:28.490Z,17.63
2023-05-21T19:17:57.375Z,17.63
2023-05-21T19:20:27.934Z,17.54
2023-05-21T19:22:59.786Z,17.42
2023-05-21T19:25:29.108Z,17.38
2023-05-21T19:27:58.129Z,17.35
2023-05-21T19:30:26.936Z,17.26
2023-05-21T19:32:56.083Z,17.19
2023-05-21T19:35:24.816Z,17.18
2023-05-21T19:38:00.201Z,17.11
2023-05-21T19:40:31.796Z,17.02
2023-05-21T19:43:00.730Z,16.98
2023-05-21T19:45:29.237Z,16.83
2023-05-21T19:47:59.366Z,16.75
2023-05-21T19:50:28.933Z,16.66
2023-05-21T19:52:59.380Z,16.66
2023-05-21T19:55:28.669Z,16.54
2023-05-21T19:57:57.832Z,16.45
2023-05-21T20:00:27.679Z,16.36
2023-05-21T20:02:56.849Z,16.27
2023-05-21T20:05:25.840Z,16.20
2023-05-21T20:07:54.646Z,16.13
2023-05-21T20:10:24.760Z,16.02
2023-05-21T20:12:54.101Z,16.01
2023-05-21T20:15:23.256Z,15.84
2023-05-21T20:17:52.718Z,15.79
2023-05-21T20:20:23.970Z,15.86
2023-05-21T20:22:52.764Z,15.86
2023-05-21T20:25:22.122Z,15.82
2023-05-21T20:27:53.752Z,15.88
2023-05-21T20:30:22.631Z,15.89
2023-05-21T20:32:51.241Z,15.86
2023-05-21T20:35:20.065Z,15.91
2023-05-21T20:37:49.375Z,15.91
2023-05-21T20:40:19.205Z,15.92
2023-05-21T20:42:51.009Z,15.94
2023-05-21T20:45:22.448Z,15.96
2023-05-21T20:47:57.104Z,15.95
2023-05-21T20:50:29.168Z,15.90
2023-05-21T20:52:58.310Z,15.80
2023-05-21T20:55:27.423Z,15.73
2023-05-21T20:57:56.435Z,15.70
2023-05-21T21:00:27.459Z,15.60
2023-05-21T21:02:56.578Z,15.49
2023-05-21T21:05:25.620Z,15.50
2023-05-21T21:07:55.881Z,15.49
2023-05-21T21:10:24.997Z,15.52
2023-05-21T21:12:57.308Z,15.50
2023-05-21T21:15:27.862Z,15.50
2023-05-21T21:17:59.315Z,15.52
2023-05-21T21:20:28.255Z,15.53
2023-05-21T21:22:57.446Z,15.44
2023-05-21T21:25:26.070Z,15.18
2023-05-21T21:27:55.095Z,15.39
2023-05-21T21:30:24.282Z,15.39
2023-05-21T21:32:55.082Z,15.35
2023-05-21T21:35:23.709Z,15.27
2023-05-21T21:37:52.695Z,15.22
2023-05-21T21:40:21.366Z,15.18
2023-05-21T21:42:50.501Z,15.18
2023-05-21T21:45:19.603Z,15.18
2023-05-21T21:47:48.550Z,15.18
2023-05-21T21:50:18.985Z,15.17
2023-05-21T21:52:49.017Z,15.05
2023-05-21T21:55:19.163Z,15.02
2023-05-21T21:57:49.072Z,15.02
2023-05-21T22:00:18.576Z,14.99
2023-05-21T22:02:48.162Z,14.96
2023-05-21T22:05:18.594Z,14.94
2023-05-21T22:07:47.954Z,14.88
2023-05-21T22:10:17.537Z,14.85
2023-05-21T22:12:46.283Z,14.81
2023-05-21T22:15:20.192Z,14.77
2023-05-21T22:17:50.474Z,14.78
2023-05-21T22:20:22.266Z,14.77
2023-05-21T22:22:54.094Z,14.76
2023-05-21T22:25:23.859Z,14.74
2023-05-21T22:27:53.045Z,14.74
2023-05-21T22:30:21.499Z,14.74
2023-05-21T22:32:50.494Z,14.72
2023-05-21T22:35:20.939Z,14.71
2023-05-21T22:37:49.845Z,14.64
2023-05-21T22:40:18.577Z,14.61
2023-05-21T22:42:48.007Z,14.54
2023-05-21T22:45:16.989Z,14.50
2023-05-21T22:47:46.760Z,14.47
2023-05-21T22:50:16.794Z,14.38
2023-05-21T22:52:46.637Z,14.38
2023-05-21T22:55:16.061Z,14.37
2023-05-21T22:57:45.550Z,14.35
2023-05-21T23:00:14.835Z,14.34
2023-05-21T23:02:43.566Z,14.30
2023-05-21T23:05:12.102Z,14.00
2023-05-21T23:07:41.876Z,14.24
2023-05-21T23:10:12.673Z,14.21
2023-05-21T23:12:41.634Z,14.12
2023-05-21T23:15:11.302Z,14.10
2023-05-21T23:17:40.499Z,14.07
2023-05-21T23:20:10.712Z,14.00
2023-05-21T23:22:39.344Z,14.00
2023-05-21T23:25:09.266Z,14.00
2023-05-21T23:27:39.605Z,13.99
2023-05-21T23:30:09.519Z,13.96
2023-05-21T23:32:38.482Z,13.93
2023-05-21T23:35:08.364Z,13.92
2023-05-21T23:37:37.380Z,13.85
2023-05-21T23:40:06.849Z,13.84
2023-05-21T23:42:35.924Z,13.84
2023-05-21T23:45:06.953Z,13.84
2023-05-21T23:47:36.077Z,13.83
2023-05-21T23:50:04.776Z,13.79
2023-05-21T23:52:33.989Z,13.79
2023-05-21T23:55:03.391Z,13.74
2023-05-21T23:57:32.406Z,13.75
